x

Ilm2 - 5 Miles Se Of Wrightsville Beach, Nc (41038) Weather Station

10:08 - Mon 16th Jan 2017 All times are EST. -5 hours from GMT.

  • Wind
    11mph, 16mph gusts
  • Ar Temp 54°f
  • Sea Pressure 1026.8mb
  • Ilm2 - 5 Miles Se Of Wrightsville Beach, Nc
  • Ilm2 - 5 Miles Se Of Wrightsville Beach, Nc

More Historic Weather Station data

Upgrade to MSW Pro to gain access to the past 30 days of data for over 8000 Wavebouys and Weather Stations around the globe.

Join Pro

Comparision Forecast

View Surf forecast
   
Seg 01/16 10:08 11 16 mph 1026.8mb - 54f
9:08 11 16 mph 1027.2mb - 54f
8:08 13 18 mph 1027.5mb - 54f
7:08 11 20 mph 1027.7mb - 54f
4:08 11 18 mph 1027.9mb - 53f
12:08 13 27 mph 1029.1mb - 50f
8:08 18 31 mph 1028.5mb - 49f
7:08 16 27 mph 1028.1mb - 49f
5:08 18 29 mph 1027.6mb - 49f
4:08 16 27 mph 1027.1mb - 50f
3:08 13 25 mph 1027.3mb - 51f
2:08 11 22 mph 1027.1mb - 51f
Dom 01/15 11:08 13 20 mph 1027.1mb - 52f
10:08 13 25 mph 1027.2mb - 53f
9:08 13 25 mph 1027.5mb - 53f
6:08 11 20 mph 1026.8mb - 54f
5:08 11 18 mph 1026.3mb - 55f
4:08 13 22 mph 1025.9mb - 55f
1:08 4 9 mph 1025.6mb - 54f
12:08 4 7 mph 1025.9mb - 54f
11:08 13 18 mph 1027mb - 53f
10:08 11 16 mph 1027.2mb - 53f
9:08 2 4 mph 1026.6mb - 52f
7:08 4 9 mph 1025.9mb - 52f
6:08 2 4 mph 1025.6mb - 52f
5:08 2 7 mph 1025.6mb - 51f
4:08 4 7 mph 1025.6mb - 52f
3:08 7 9 mph 1025.7mb - 52f
1:08 7 9 mph 1026.4mb - 52f
Sáb 01/14 11:08 9 11 mph 1028mb - 51f
8:08 7 11 mph 1029mb - 54f
6:08 2 4 mph 1028.9mb - 54f
4:08 2 7 mph 1029mb - 56f
2:08 2 4 mph 1029.7mb - 55f
1:08 4 7 mph 1030.6mb 54f 54f
12:08 9 16 mph 1031.8mb 54f 53f
11:08 13 20 mph 1033.1mb 54f 52f
10:08 13 22 mph 1033.6mb 54f 51f
9:08 16 29 mph 1033.4mb 54f 51f
8:08 20 27 mph 1032.8mb 54f 51f
7:08 20 27 mph 1032.5mb 54f 51f
6:08 18 29 mph 1032.3mb 54f 51f
3:08 13 27 mph 1032.9mb 54f 53f
2:08 13 27 mph 1032.9mb 54f 53f
1:08 16 25 mph 1032.8mb - 53f
12:08 16 29 mph 1033.1mb 54f 54f
Sex 01/13 11:08 16 25 mph 1033mb 53f 55f
10:08 16 22 mph 1033mb - 56f
9:08 2 4 mph 1031.6mb 53f 57f
8:08 7 9 mph 1031.2mb - 56f
7:08 7 9 mph 1030.7mb - 57f
6:08 7 9 mph 1030.3mb - 56f
5:08 9 13 mph 1029.9mb 53f 57f
4:08 11 13 mph 1029.6mb 53f 58f
3:08 11 13 mph 1029.5mb 53f 58f
2:08 9 13 mph 1029.4mb 54f 58f
10:08 7 9 mph 1031.9mb 53f 56f
9:08 4 7 mph 1031.8mb 53f 55f
8:08 4 9 mph 1031mb 53f 54f
7:08 7 11 mph 1030.2mb - 53f
6:08 7
mph
1029.4mb - 54f
5:08 4 7 mph 1029mb 53f 54f